全部
Temora Airport (Temora, New South Wales) TEM 天气
|
Temora, New South Wales (YTEM)
晴天
静风 |
|
9 °C |
TEM终端机场天气预报
| Date | Time (AEST) | Flight Rules | Wind Dir. | Speed | Type | Height AGL (ft) | Visibility | Remarks | ||||||
|---|---|---|---|---|---|---|---|---|---|---|---|---|---|---|
TEM近期METAR历史数据
| Date | Time (AEST) | Flight Rules | Wind Dir. | Speed | Type | Height AGL (ft) | Visibility | Temp (°C) | Temp (°F) | Dew Point (°C) | Dew Point (°F) | Rel. Humid. | Pressure | Density Altitude | Remarks |
|---|---|---|---|---|---|---|---|---|---|---|---|---|---|---|---|
| 04-五月 | 23:00 | n/a | Calm | Missing | 9° | 48° | 9° | 48° | 100% | 1018 mb | 59 ft | ||||
| 04-五月 | 22:00 | n/a | Calm | Missing | 10° | 50° | 9° | 48° | 93% | 1019 mb | 150 ft | ||||
| 04-五月 | 21:00 | n/a | Calm | Missing | 10° | 50° | 9° | 48° | 93% | 1019 mb | 150 ft | ||||
| 04-五月 | 20:00 | n/a | 250° | 3 kt | Missing | 11° | 51° | 9° | 48° | 87% | 1018 mb | 299 ft | |||
| 04-五月 | 19:00 | n/a | 300° | 4 kt | Missing | 13° | 55° | 8° | 46° | 72% | 1017 mb | 569 ft | |||
| 04-五月 | 18:00 | n/a | 300° | 4 kt | Missing | 14° | 57° | 8° | 46° | 67% | 1016 mb | 719 ft | |||
| 04-五月 | 17:00 | n/a | 250° | 6 kt | Missing | 17° | 62° | 9° | 48° | 59% | 1016 mb | 1,079 ft | |||
| 04-五月 | 16:00 | n/a | 290° | 7 kt | Missing | 18° | 64° | 9° | 48° | 56% | 1015 mb | 1,228 ft | |||
| 04-五月 | 15:00 | n/a | 270° | 5 kt | Missing | 19° | 66° | 9° | 48° | 52% | 1015 mb | 1,348 ft | |||
| 04-五月 | 14:00 | n/a | 280° | 7 kt | Missing | 18° | 64° | 10° | 50° | 59% | 1015 mb | 1,228 ft | |||
| 04-五月 | 13:00 | n/a | 330° | 6 kt | Missing | 18° | 64° | 12° | 53° | 68% | 1016 mb | 1,199 ft | |||
| 04-五月 | 12:00 | n/a | 270° | 3 kt | Missing | 16° | 60° | 12° | 53° | 77% | 1016 mb | 959 ft | |||
| 04-五月 | 11:00 | n/a | Calm | Missing | 15° | 59° | 12° | 53° | 82% | 1017 mb | 809 ft | ||||
| 04-五月 | 10:00 | n/a | 240° | 1 kt | Missing | 15° | 59° | 13° | 55° | 88% | 1017 mb | 809 ft | |||
| 04-五月 | 09:00 | n/a | Calm | Missing | 13° | 55° | 13° | 55° | 100% | 1017 mb | 569 ft | ||||
| 04-五月 | 08:00 | n/a | Calm | Missing | 13° | 55° | 13° | 55° | 100% | 1017 mb | 569 ft | ||||
| 04-五月 | 07:00 | n/a | 230° | 2 kt | Missing | 13° | 55° | 13° | 55° | 100% | 1016 mb | 599 ft | |||
| 04-五月 | 06:00 | n/a | 240° | 1 kt | Missing | 13° | 55° | 13° | 55° | 100% | 1016 mb | 599 ft | |||
| 04-五月 | 05:00 | n/a | 220° | 6 kt | Missing | 13° | 55° | 13° | 55° | 100% | 1016 mb | 599 ft | |||
| 04-五月 | 04:00 | n/a | 280° | 9 kt | Missing | 15° | 59° | 15° | 59° | 100% | 1015 mb | 868 ft | |||
| 04-五月 | 03:00 | n/a | 10° | 9 kt | Missing | 17° | 62° | 17° | 62° | 100% | 1015 mb | 1,108 ft | |||
| 04-五月 | 02:00 | n/a | 360° | 11 kt | Missing | 17° | 62° | 17° | 62° | 100% | 1016 mb | 1,079 ft | |||
| 04-五月 | 01:00 | n/a | 20° | 11 kt | Missing | 17° | 62° | 17° | 62° | 100% | 1016 mb | 1,079 ft | |||
| 04-五月 | 00:00 | n/a | 10° | 9 kt | Missing | 17° | 62° | 17° | 62° | 100% | 1017 mb | 1,049 ft |
登录
| 您的浏览器不支持. 升级您的浏览器 |
